createdAt,value
2022-08-10T00:00:31.111Z,38.45
2022-08-10T00:01:43.893Z,38.36
2022-08-10T00:02:53.702Z,38.29
2022-08-10T00:04:00.895Z,38.24
2022-08-10T00:05:08.503Z,38.28
2022-08-10T00:06:15.006Z,38.22
2022-08-10T00:07:22.027Z,38.15
2022-08-10T00:08:32.214Z,38.29
2022-08-10T00:09:50.785Z,38.35
2022-08-10T00:10:59.076Z,38.23
2022-08-10T00:12:08.394Z,38.31
2022-08-10T00:13:15.510Z,38.50
2022-08-10T00:14:23.452Z,38.44
2022-08-10T00:15:52.623Z,38.37
2022-08-10T00:16:58.895Z,38.33
2022-08-10T00:18:05.960Z,38.40
2022-08-10T00:19:12.020Z,38.47
2022-08-10T00:20:20.446Z,38.65
2022-08-10T00:21:28.064Z,38.62
2022-08-10T00:22:37.273Z,38.62
2022-08-10T00:24:03.262Z,38.67
2022-08-10T00:25:10.718Z,38.51
2022-08-10T00:26:16.947Z,38.46
2022-08-10T00:28:01.110Z,38.27
2022-08-10T00:29:00.780Z,38.25
2022-08-10T00:30:10.072Z,38.11
2022-08-10T00:31:16.518Z,38.20
2022-08-10T00:32:24.906Z,38.27
2022-08-10T00:33:32.153Z,38.25
2022-08-10T00:34:41.821Z,38.24
2022-08-10T00:35:48.322Z,38.22
2022-08-10T00:36:57.697Z,38.26
2022-08-10T00:38:07.143Z,38.12
2022-08-10T00:39:15.910Z,38.19
2022-08-10T00:40:37.489Z,38.38
2022-08-10T00:41:45.422Z,38.44
2022-08-10T00:42:52.635Z,38.51
2022-08-10T00:43:59.866Z,38.47
2022-08-10T00:45:06.198Z,38.34
2022-08-10T00:46:14.576Z,38.41
2022-08-10T00:47:37.121Z,38.35
2022-08-10T00:48:48.658Z,38.41
2022-08-10T00:50:09.069Z,38.37
2022-08-10T00:51:16.788Z,38.32
2022-08-10T00:52:26.330Z,38.19
2022-08-10T00:53:33.722Z,38.17
2022-08-10T00:54:44.041Z,38.24
2022-08-10T00:57:12.372Z,38.16
2022-08-10T00:57:18.622Z,38.14
2022-08-10T00:58:28.480Z,38.09
2022-08-10T00:59:34.661Z,38.22
2022-08-10T01:01:02.525Z,38.22
2022-08-10T01:02:11.863Z,38.29
2022-08-10T01:04:58.715Z,38.32
2022-08-10T01:05:00.171Z,38.29
2022-08-10T01:06:32.939Z,38.20
2022-08-10T01:08:07.601Z,38.12
2022-08-10T01:09:18.661Z,38.21
2022-08-10T01:10:36.085Z,38.21
2022-08-10T01:12:38.632Z,38.11
2022-08-10T01:13:52.430Z,37.86
2022-08-10T01:15:03.830Z,37.73
2022-08-10T01:16:20.231Z,37.71
2022-08-10T01:17:58.207Z,37.38
2022-08-10T01:19:30.946Z,37.00
2022-08-10T01:21:03.887Z,36.66
2022-08-10T01:22:19.527Z,36.28
2022-08-10T01:23:32.835Z,36.00
2022-08-10T01:25:02.041Z,35.77
2022-08-10T01:26:31.613Z,35.54
2022-08-10T01:27:58.314Z,35.33
2022-08-10T01:29:29.420Z,35.17
2022-08-10T01:30:37.000Z,34.99
2022-08-10T01:31:44.769Z,34.86
2022-08-10T01:33:07.625Z,34.75
2022-08-10T01:34:22.274Z,34.64
2022-08-10T01:35:59.691Z,34.61
2022-08-10T01:37:09.168Z,34.45
2022-08-10T01:38:38.459Z,34.32
2022-08-10T01:39:47.173Z,34.14
2022-08-10T01:41:02.816Z,34.03
2022-08-10T01:42:09.413Z,33.90
2022-08-10T01:43:16.456Z,33.76
2022-08-10T01:44:36.787Z,33.70
2022-08-10T01:45:46.167Z,33.59
2022-08-10T01:46:57.179Z,33.50
2022-08-10T01:48:23.616Z,33.44
2022-08-10T01:49:31.380Z,33.34
2022-08-10T01:50:59.488Z,33.28
2022-08-10T01:52:09.190Z,33.17
2022-08-10T01:53:28.982Z,33.07
2022-08-10T01:54:50.401Z,32.96
2022-08-10T01:56:01.318Z,32.93
2022-08-10T01:57:08.009Z,32.91
2022-08-10T01:58:13.621Z,32.90
2022-08-10T01:59:39.159Z,32.88
2022-08-10T02:00:46.181Z,32.83
2022-08-10T02:01:56.441Z,32.80
2022-08-10T02:03:06.905Z,32.77
2022-08-10T02:04:14.419Z,32.76
2022-08-10T02:05:21.146Z,32.73
2022-08-10T02:06:27.909Z,32.73
2022-08-10T02:07:36.413Z,32.75
2022-08-10T02:08:46.177Z,32.71
2022-08-10T02:09:53.865Z,32.66
2022-08-10T02:11:01.247Z,32.61
2022-08-10T02:12:08.970Z,32.58
2022-08-10T02:13:16.087Z,32.55
2022-08-10T02:14:34.615Z,32.52
2022-08-10T02:16:01.315Z,32.56
2022-08-10T02:17:56.978Z,32.65
2022-08-10T02:18:41.493Z,32.76
2022-08-10T02:19:49.396Z,32.84
2022-08-10T02:20:58.622Z,32.90
2022-08-10T02:22:36.558Z,32.94
2022-08-10T02:23:32.814Z,32.94
2022-08-10T02:24:39.768Z,32.89
2022-08-10T02:25:46.620Z,32.79
2022-08-10T02:27:00.004Z,32.67
2022-08-10T02:28:06.577Z,32.57
2022-08-10T02:29:14.286Z,32.47
2022-08-10T02:30:21.163Z,32.35
2022-08-10T02:31:28.170Z,32.26
2022-08-10T02:32:39.709Z,32.13
2022-08-10T02:33:57.536Z,32.00
2022-08-10T02:35:09.895Z,31.85
2022-08-10T02:36:30.907Z,31.72
2022-08-10T02:37:39.251Z,31.62
2022-08-10T02:39:00.690Z,31.52
2022-08-10T02:40:09.203Z,31.41
2022-08-10T02:45:18.527Z,31.29
2022-08-10T02:45:22.801Z,31.12
2022-08-10T02:45:34.504Z,31.01
2022-08-10T02:46:48.251Z,30.92
2022-08-10T02:47:59.512Z,30.85
2022-08-10T02:49:07.406Z,30.79
2022-08-10T02:50:29.942Z,30.73
2022-08-10T02:52:07.853Z,30.69
2022-08-10T02:53:55.526Z,30.61
2022-08-10T02:55:18.388Z,30.52
2022-08-10T02:56:38.775Z,30.42
2022-08-10T02:58:17.298Z,30.34
2022-08-10T02:59:47.381Z,30.25
2022-08-10T03:00:56.596Z,30.16
2022-08-10T03:02:05.145Z,30.10
2022-08-10T03:03:20.697Z,30.04
2022-08-10T03:04:58.057Z,29.99
2022-08-10T03:06:11.805Z,29.92
2022-08-10T03:07:42.858Z,29.88
2022-08-10T03:08:52.387Z,29.83
2022-08-10T03:10:00.831Z,29.79
2022-08-10T03:11:15.839Z,29.74
2022-08-10T03:12:37.531Z,29.69
2022-08-10T03:13:59.549Z,29.63
2022-08-10T03:15:08.683Z,29.59
2022-08-10T03:16:23.148Z,29.55
2022-08-10T03:17:31.583Z,29.51
2022-08-10T03:18:42.214Z,29.49
2022-08-10T03:20:35.901Z,29.46
2022-08-10T03:21:21.852Z,29.43
2022-08-10T03:22:32.425Z,29.41
2022-08-10T03:23:40.198Z,29.39
2022-08-10T03:24:48.932Z,29.36
2022-08-10T03:25:57.144Z,29.32
2022-08-10T03:27:03.816Z,29.29
2022-08-10T03:28:10.906Z,29.25
2022-08-10T03:29:26.810Z,29.21
2022-08-10T03:30:36.386Z,29.18
2022-08-10T03:31:44.387Z,29.15
2022-08-10T03:32:51.486Z,29.11
2022-08-10T03:34:02.729Z,29.06
2022-08-10T03:35:27.829Z,29.01
2022-08-10T03:36:41.827Z,28.98
2022-08-10T03:37:55.784Z,28.96
2022-08-10T03:39:07.116Z,28.94
2022-08-10T03:40:13.257Z,28.92
2022-08-10T03:41:25.031Z,28.90
2022-08-10T03:42:33.167Z,28.87
2022-08-10T03:43:41.231Z,28.86
2022-08-10T03:44:50.521Z,28.85
2022-08-10T03:45:59.162Z,28.83
2022-08-10T03:47:16.267Z,28.81
2022-08-10T03:48:24.050Z,28.79
2022-08-10T03:49:35.635Z,28.79
2022-08-10T03:50:51.026Z,28.81
2022-08-10T03:52:00.459Z,28.82
2022-08-10T03:53:09.299Z,28.81
2022-08-10T03:54:34.435Z,28.79
2022-08-10T03:56:29.460Z,28.79
2022-08-10T03:57:12.667Z,28.77
2022-08-10T03:58:18.877Z,28.76
2022-08-10T03:59:26.352Z,28.73
2022-08-10T04:00:37.159Z,28.71
2022-08-10T04:02:52.007Z,28.70
2022-08-10T04:03:18.096Z,28.69
2022-08-10T04:04:25.799Z,28.69
2022-08-10T04:05:38.705Z,28.67
2022-08-10T04:06:46.127Z,28.64
2022-08-10T04:07:59.589Z,28.61
2022-08-10T04:09:08.979Z,28.58
2022-08-10T04:10:15.877Z,28.56
2022-08-10T04:11:23.913Z,28.53
2022-08-10T04:12:31.254Z,28.50
2022-08-10T04:13:39.665Z,28.47
2022-08-10T04:14:51.327Z,28.44
2022-08-10T04:16:07.529Z,28.42
2022-08-10T04:17:15.384Z,28.41
2022-08-10T04:18:23.702Z,28.40
2022-08-10T04:19:43.444Z,28.40
2022-08-10T04:21:09.225Z,28.38
2022-08-10T04:22:20.297Z,28.35
2022-08-10T04:23:34.942Z,28.34
2022-08-10T04:24:41.821Z,28.30
2022-08-10T04:25:49.195Z,28.27
2022-08-10T04:27:00.140Z,28.22
2022-08-10T04:28:06.427Z,28.19
2022-08-10T04:29:15.668Z,28.15
2022-08-10T04:30:22.648Z,28.12
2022-08-10T04:31:30.697Z,28.09
2022-08-10T04:32:38.438Z,28.05
2022-08-10T04:33:51.524Z,28.00
2022-08-10T04:34:59.614Z,27.95
2022-08-10T04:36:08.597Z,27.89
2022-08-10T04:37:14.869Z,27.86
2022-08-10T04:38:21.781Z,27.83
2022-08-10T04:39:31.748Z,27.80
2022-08-10T04:40:39.684Z,27.76
2022-08-10T04:41:47.569Z,27.73
2022-08-10T04:42:54.997Z,27.71
2022-08-10T04:44:10.799Z,27.68
2022-08-10T04:45:19.775Z,27.65
2022-08-10T04:46:55.370Z,27.62
2022-08-10T04:48:00.926Z,27.59
2022-08-10T04:49:56.356Z,27.57
2022-08-10T04:50:40.751Z,27.54
2022-08-10T04:51:48.636Z,27.51
2022-08-10T04:52:55.893Z,27.48
2022-08-10T04:54:07.150Z,27.46
2022-08-10T04:55:15.736Z,27.43
2022-08-10T04:56:31.371Z,27.41
2022-08-10T04:57:44.254Z,27.38
2022-08-10T04:58:51.939Z,27.36
2022-08-10T05:00:00.045Z,27.36
2022-08-10T05:01:09.647Z,27.36
2022-08-10T05:02:29.846Z,27.35
2022-08-10T05:04:35.766Z,27.35
2022-08-10T05:05:12.869Z,27.35
2022-08-10T05:06:19.484Z,27.33
2022-08-10T05:07:29.443Z,27.31
2022-08-10T05:08:37.148Z,27.28
2022-08-10T05:10:01.422Z,27.24
2022-08-10T05:11:11.989Z,27.20
2022-08-10T05:12:34.474Z,27.17
2022-08-10T05:13:46.709Z,27.15
2022-08-10T05:14:56.209Z,27.13
2022-08-10T05:16:03.339Z,27.10
2022-08-10T05:17:13.339Z,27.06
2022-08-10T05:18:20.025Z,27.03
2022-08-10T05:20:03.568Z,27.01
2022-08-10T05:20:56.872Z,26.97
2022-08-10T05:22:06.006Z,26.95
2022-08-10T05:23:14.392Z,26.93
2022-08-10T05:24:20.616Z,26.89
2022-08-10T05:25:32.855Z,26.87
2022-08-10T05:27:00.607Z,26.84
2022-08-10T05:28:11.692Z,26.82
2022-08-10T05:29:18.101Z,26.80
2022-08-10T05:30:25.861Z,26.78
2022-08-10T05:31:36.628Z,26.75
2022-08-10T05:32:56.081Z,26.73
2022-08-10T05:34:20.832Z,26.70
2022-08-10T05:35:39.089Z,26.66
2022-08-10T05:36:58.989Z,26.63
2022-08-10T05:38:13.429Z,26.62
2022-08-10T05:39:28.708Z,26.59
2022-08-10T05:40:46.053Z,26.57
2022-08-10T05:41:56.371Z,26.55
2022-08-10T05:43:09.592Z,26.52
2022-08-10T05:44:18.343Z,26.51
2022-08-10T05:45:27.947Z,26.49
2022-08-10T05:46:34.871Z,26.45
2022-08-10T05:48:55.303Z,26.42
2022-08-10T05:49:11.015Z,26.38
2022-08-10T05:50:18.117Z,26.35
2022-08-10T05:51:33.005Z,26.34
2022-08-10T05:52:45.267Z,26.33
2022-08-10T05:54:04.161Z,26.33
2022-08-10T05:55:17.386Z,26.33
2022-08-10T05:56:26.736Z,26.31
2022-08-10T05:57:55.945Z,26.28
2022-08-10T05:59:03.637Z,26.25
2022-08-10T06:00:36.166Z,26.23
2022-08-10T06:01:43.446Z,26.19
2022-08-10T06:03:13.820Z,26.16
2022-08-10T06:04:27.276Z,26.13
2022-08-10T06:05:36.394Z,26.10
2022-08-10T06:06:44.040Z,26.07
2022-08-10T06:08:07.330Z,26.05
2022-08-10T06:09:15.172Z,26.02
2022-08-10T06:10:31.881Z,25.99
2022-08-10T06:12:23.601Z,25.97
2022-08-10T06:13:34.438Z,25.95
2022-08-10T06:15:05.025Z,25.91
2022-08-10T06:16:13.953Z,25.89
2022-08-10T06:17:20.294Z,25.87
2022-08-10T06:18:29.051Z,25.83
2022-08-10T06:19:38.706Z,25.80
2022-08-10T06:20:45.533Z,25.76
2022-08-10T06:22:01.185Z,25.73
2022-08-10T06:23:09.385Z,25.68
2022-08-10T06:24:18.589Z,25.64
2022-08-10T06:26:10.261Z,25.60
2022-08-10T06:27:06.403Z,25.55
2022-08-10T06:28:15.222Z,25.52
2022-08-10T06:29:21.239Z,25.50
2022-08-10T06:30:28.537Z,25.49
2022-08-10T06:31:47.588Z,25.48
2022-08-10T06:32:59.737Z,25.47
2022-08-10T06:34:06.464Z,25.44
2022-08-10T06:35:12.631Z,25.41
2022-08-10T06:36:20.883Z,25.40
2022-08-10T06:37:31.336Z,25.37
2022-08-10T06:38:42.641Z,25.35
2022-08-10T06:39:50.014Z,25.32
2022-08-10T06:40:58.793Z,25.29
2022-08-10T06:42:20.910Z,25.27
2022-08-10T06:43:28.878Z,25.23
2022-08-10T06:44:40.321Z,25.21
2022-08-10T06:46:07.277Z,25.19
2022-08-10T06:47:14.961Z,25.15
2022-08-10T06:48:40.309Z,25.12
2022-08-10T06:49:47.918Z,25.10
2022-08-10T06:51:01.421Z,25.07
2022-08-10T06:52:09.256Z,25.05
2022-08-10T06:53:21.008Z,25.03
2022-08-10T06:54:28.557Z,25.00
2022-08-10T06:55:40.117Z,24.97
2022-08-10T06:57:17.486Z,24.94
2022-08-10T06:58:26.686Z,24.89
2022-08-10T06:59:38.118Z,24.87
2022-08-10T07:00:45.057Z,24.84
2022-08-10T07:02:03.571Z,24.82
2022-08-10T07:03:12.024Z,24.80
2022-08-10T07:04:32.643Z,24.78
2022-08-10T07:05:51.207Z,24.74
2022-08-10T07:06:58.150Z,24.72
2022-08-10T07:08:08.188Z,24.69
2022-08-10T07:09:15.070Z,24.68
2022-08-10T07:10:22.926Z,24.65
2022-08-10T07:11:30.765Z,24.63
2022-08-10T07:12:40.492Z,24.63
2022-08-10T07:14:15.663Z,24.61
2022-08-10T07:15:20.677Z,24.59
2022-08-10T07:16:30.007Z,24.56
2022-08-10T07:17:39.666Z,24.54
2022-08-10T07:18:46.837Z,24.52
2022-08-10T07:19:59.158Z,24.50
2022-08-10T07:21:07.470Z,24.49
2022-08-10T07:23:01.734Z,24.47
2022-08-10T07:23:58.338Z,24.45
2022-08-10T07:25:09.810Z,24.42
2022-08-10T07:26:15.671Z,24.40
2022-08-10T07:27:21.768Z,24.39
2022-08-10T07:28:29.273Z,24.38
2022-08-10T07:29:54.272Z,24.37
2022-08-10T07:31:54.350Z,24.35
2022-08-10T07:32:38.257Z,24.31
2022-08-10T07:33:47.864Z,24.29
2022-08-10T07:34:57.548Z,24.26
2022-08-10T07:36:05.880Z,24.24
2022-08-10T07:37:11.914Z,24.23
2022-08-10T07:38:25.347Z,24.21
2022-08-10T07:40:01.975Z,24.19
2022-08-10T07:41:00.881Z,24.18
2022-08-10T07:42:08.654Z,24.18
2022-08-10T07:43:15.574Z,24.18
2022-08-10T07:44:21.633Z,24.18
2022-08-10T07:45:29.688Z,24.17
2022-08-10T07:46:36.224Z,24.15
2022-08-10T07:47:54.361Z,24.14
2022-08-10T07:49:28.526Z,24.12
2022-08-10T07:50:35.429Z,24.10
2022-08-10T07:51:42.593Z,24.09
2022-08-10T07:52:49.901Z,24.07
2022-08-10T07:53:58.240Z,24.05
2022-08-10T07:55:04.413Z,24.02
2022-08-10T07:56:38.517Z,24.00
2022-08-10T07:57:40.705Z,23.97
2022-08-10T07:58:52.580Z,23.94
2022-08-10T08:00:07.529Z,23.92
2022-08-10T08:01:20.685Z,23.89
2022-08-10T08:02:41.801Z,23.87
2022-08-10T08:04:10.762Z,23.85
2022-08-10T08:05:38.536Z,23.84
2022-08-10T08:06:44.735Z,23.82
2022-08-10T08:07:50.834Z,23.83
2022-08-10T08:08:59.758Z,23.82
2022-08-10T08:10:08.309Z,23.81
2022-08-10T08:11:25.621Z,23.80
2022-08-10T08:12:37.070Z,23.79
2022-08-10T08:13:46.116Z,23.78
2022-08-10T08:14:53.973Z,23.77
2022-08-10T08:16:18.225Z,23.76
2022-08-10T08:17:35.582Z,23.72
2022-08-10T08:19:04.079Z,23.67
2022-08-10T08:20:14.097Z,23.61
2022-08-10T08:24:05.991Z,23.49
2022-08-10T08:24:06.052Z,23.56
2022-08-10T08:24:32.726Z,23.42
2022-08-10T08:25:43.115Z,23.35
2022-08-10T08:26:52.032Z,23.31
2022-08-10T08:27:58.775Z,23.26
2022-08-10T08:29:04.775Z,23.21
2022-08-10T08:30:12.727Z,23.17
2022-08-10T08:31:18.443Z,23.13
2022-08-10T08:32:31.224Z,23.10
2022-08-10T08:33:42.493Z,23.05
2022-08-10T08:34:58.049Z,23.01
2022-08-10T08:36:08.317Z,22.97
2022-08-10T08:38:27.364Z,22.93
2022-08-10T08:38:47.952Z,22.89
2022-08-10T08:39:54.062Z,22.86
2022-08-10T08:41:23.191Z,22.82
2022-08-10T08:42:54.026Z,22.78
2022-08-10T08:44:16.406Z,22.73
2022-08-10T08:45:54.046Z,22.69
2022-08-10T08:48:05.883Z,22.64
2022-08-10T08:50:04.986Z,22.59
2022-08-10T08:51:01.763Z,22.55
2022-08-10T08:52:19.036Z,22.50
2022-08-10T08:54:02.636Z,22.46
2022-08-10T08:56:05.122Z,22.42
2022-08-10T08:57:50.183Z,22.36
2022-08-10T08:59:23.892Z,22.32
2022-08-10T09:00:53.929Z,22.28
2022-08-10T09:02:33.023Z,22.25
2022-08-10T09:04:00.521Z,22.23
2022-08-10T09:05:22.152Z,22.22
2022-08-10T09:08:01.119Z,22.19
2022-08-10T09:09:06.996Z,22.15
2022-08-10T09:10:47.216Z,22.12
2022-08-10T09:12:33.277Z,22.08
2022-08-10T09:13:46.093Z,22.06
2022-08-10T09:15:40.275Z,22.05
2022-08-10T09:17:19.677Z,22.03
2022-08-10T09:18:26.768Z,21.99
2022-08-10T09:19:51.086Z,21.96
2022-08-10T09:21:15.087Z,21.93
2022-08-10T09:22:57.545Z,21.89
2022-08-10T09:24:16.450Z,21.86
2022-08-10T09:25:27.549Z,21.84
2022-08-10T09:26:53.684Z,21.83
2022-08-10T09:28:15.483Z,21.80
2022-08-10T09:29:30.609Z,21.78
2022-08-10T09:36:13.944Z,21.72
2022-08-10T09:36:26.172Z,21.69
2022-08-10T09:36:44.939Z,21.65
2022-08-10T09:38:19.663Z,21.61
2022-08-10T09:40:12.316Z,21.60
2022-08-10T09:41:33.047Z,21.60
2022-08-10T09:43:33.216Z,21.59
2022-08-10T09:44:57.479Z,21.56
2022-08-10T09:46:41.392Z,21.54
2022-08-10T09:48:18.907Z,21.54
2022-08-10T09:50:00.899Z,21.52
2022-08-10T09:51:45.839Z,21.48
2022-08-10T09:53:14.235Z,21.44
2022-08-10T09:54:45.061Z,21.41
2022-08-10T09:56:17.668Z,21.41
2022-08-10T09:58:20.035Z,21.40
2022-08-10T10:00:00.689Z,21.38
2022-08-10T10:02:00.462Z,21.37
2022-08-10T10:03:17.678Z,21.37
2022-08-10T10:04:46.923Z,21.39
2022-08-10T10:05:58.825Z,21.41
2022-08-10T10:07:09.246Z,21.42
2022-08-10T10:08:58.653Z,21.45
2022-08-10T10:10:37.356Z,21.48
2022-08-10T10:12:32.838Z,21.53
2022-08-10T10:14:01.962Z,21.57
2022-08-10T10:15:25.971Z,21.61
2022-08-10T10:17:08.773Z,21.63
2022-08-10T10:18:24.202Z,21.62
2022-08-10T10:19:51.641Z,21.61
2022-08-10T10:21:55.765Z,21.62
2022-08-10T10:23:09.260Z,21.63
2022-08-10T10:24:40.196Z,21.62
2022-08-10T10:26:21.336Z,21.60
2022-08-10T10:28:00.671Z,21.58
2022-08-10T10:29:58.700Z,21.55
2022-08-10T10:31:29.651Z,21.52
2022-08-10T10:33:13.159Z,21.49
2022-08-10T10:34:24.865Z,21.47
2022-08-10T10:35:53.798Z,21.45
2022-08-10T10:37:00.322Z,21.41
2022-08-10T10:38:13.206Z,21.38
2022-08-10T10:39:23.907Z,21.35
2022-08-10T10:40:40.642Z,21.33
2022-08-10T10:42:35.140Z,21.30
2022-08-10T10:43:47.036Z,21.26
2022-08-10T10:45:29.653Z,21.23
2022-08-10T10:46:41.389Z,21.21
2022-08-10T10:47:47.945Z,21.19
2022-08-10T10:49:09.712Z,21.17
2022-08-10T10:50:21.857Z,21.18
2022-08-10T10:51:46.707Z,21.18
2022-08-10T10:53:03.567Z,21.17
2022-08-10T10:54:11.461Z,21.15
2022-08-10T10:55:23.062Z,21.14
2022-08-10T10:56:57.469Z,21.13
2022-08-10T10:58:36.713Z,21.11
2022-08-10T11:00:10.493Z,21.08
2022-08-10T11:01:29.238Z,21.05
2022-08-10T11:02:59.644Z,21.03
2022-08-10T11:04:22.427Z,21.01
2022-08-10T11:06:01.637Z,21.01
2022-08-10T11:07:35.292Z,21.01
2022-08-10T11:08:45.275Z,21.01
2022-08-10T11:10:33.047Z,21.03
2022-08-10T11:12:00.760Z,21.07
2022-08-10T11:14:24.755Z,21.11
2022-08-10T11:15:20.012Z,21.15
2022-08-10T11:16:39.278Z,21.17
2022-08-10T11:17:49.935Z,21.18
2022-08-10T11:19:13.706Z,21.19
2022-08-10T11:20:34.190Z,21.18
2022-08-10T11:22:01.442Z,21.16
2022-08-10T11:23:38.011Z,21.14
2022-08-10T11:25:05.572Z,21.12
2022-08-10T11:26:25.715Z,21.10
2022-08-10T11:27:34.249Z,21.08
2022-08-10T11:28:51.552Z,21.05
2022-08-10T11:30:48.178Z,21.02
2022-08-10T11:32:01.864Z,20.98
2022-08-10T11:33:33.033Z,20.97
2022-08-10T11:35:10.618Z,20.96
2022-08-10T11:36:32.803Z,20.94
2022-08-10T11:38:34.718Z,20.94
2022-08-10T11:39:49.603Z,20.92
2022-08-10T11:42:10.244Z,20.90
2022-08-10T11:42:56.942Z,20.89
2022-08-10T11:44:30.883Z,20.88
2022-08-10T11:45:52.046Z,20.87
2022-08-10T11:47:30.277Z,20.89
2022-08-10T11:49:36.337Z,20.90
2022-08-10T11:50:48.869Z,20.92
2022-08-10T11:52:05.582Z,20.95
2022-08-10T11:53:17.313Z,20.97
2022-08-10T11:54:42.697Z,20.99
2022-08-10T11:55:53.371Z,21.02
2022-08-10T11:57:02.973Z,21.04
2022-08-10T11:58:31.899Z,21.06
2022-08-10T11:59:58.109Z,21.08
2022-08-10T12:01:06.756Z,21.08
2022-08-10T12:02:13.918Z,21.08
2022-08-10T12:03:20.081Z,21.07
2022-08-10T12:04:26.496Z,21.06
2022-08-10T12:05:46.804Z,21.06
2022-08-10T12:09:22.618Z,21.08
2022-08-10T12:10:06.514Z,21.11
2022-08-10T12:10:12.957Z,21.13
2022-08-10T12:11:30.024Z,21.14
2022-08-10T12:12:40.699Z,21.15
2022-08-10T12:14:19.741Z,21.16
2022-08-10T12:15:34.969Z,21.17
2022-08-10T12:16:42.570Z,21.18
2022-08-10T12:17:56.480Z,21.20
2022-08-10T12:19:23.648Z,21.21
2022-08-10T12:20:37.954Z,21.23
2022-08-10T12:21:55.830Z,21.25
2022-08-10T12:23:24.549Z,21.27
2022-08-10T12:24:55.220Z,21.29
2022-08-10T12:26:09.553Z,21.29
2022-08-10T12:27:42.859Z,21.29
2022-08-10T12:29:01.539Z,21.29
2022-08-10T12:30:08.983Z,21.29
2022-08-10T12:31:17.997Z,21.31
2022-08-10T12:32:25.859Z,21.31
2022-08-10T12:34:01.867Z,21.31
2022-08-10T12:35:26.290Z,21.31
2022-08-10T12:36:41.322Z,21.31
2022-08-10T12:37:50.899Z,21.30
2022-08-10T12:39:04.133Z,21.29
2022-08-10T12:40:36.108Z,21.28
2022-08-10T12:42:38.729Z,21.27
2022-08-10T12:44:07.064Z,21.24
2022-08-10T12:45:21.117Z,21.21
2022-08-10T12:46:45.436Z,21.18
2022-08-10T12:48:07.363Z,21.15
2022-08-10T12:49:38.294Z,21.12
2022-08-10T12:50:45.853Z,21.08
2022-08-10T12:52:18.860Z,21.05
2022-08-10T12:53:55.107Z,21.04
2022-08-10T12:55:03.727Z,21.00
2022-08-10T12:56:09.717Z,20.98
2022-08-10T12:57:24.499Z,20.99
2022-08-10T12:58:58.742Z,21.03
2022-08-10T13:00:02.270Z,21.07
2022-08-10T13:01:17.470Z,21.10
2022-08-10T13:02:30.225Z,21.12
2022-08-10T13:04:20.734Z,21.13
2022-08-10T13:05:06.459Z,21.15
2022-08-10T13:06:12.993Z,21.15
2022-08-10T13:08:25.187Z,21.16
2022-08-10T13:09:13.778Z,21.15
2022-08-10T13:10:19.632Z,21.13
2022-08-10T13:12:35.530Z,21.13
2022-08-10T13:12:56.234Z,21.12
2022-08-10T13:14:05.133Z,21.12
2022-08-10T13:15:49.233Z,21.11
2022-08-10T13:16:58.836Z,21.10
2022-08-10T13:18:17.706Z,21.09
2022-08-10T13:19:29.190Z,21.08
2022-08-10T13:21:00.924Z,21.06
2022-08-10T13:22:07.552Z,21.05
2022-08-10T13:23:18.923Z,21.04
2022-08-10T13:24:31.700Z,21.03
2022-08-10T13:25:43.278Z,21.02
2022-08-10T13:27:25.857Z,21.01
2022-08-10T13:28:57.235Z,21.03
2022-08-10T13:30:10.415Z,21.14
2022-08-10T13:31:19.262Z,21.25
2022-08-10T13:32:28.672Z,21.41
2022-08-10T13:34:41.245Z,21.56
2022-08-10T13:35:09.607Z,21.74
2022-08-10T13:36:16.414Z,21.92
2022-08-10T13:37:26.608Z,22.05
2022-08-10T13:38:32.929Z,22.15
2022-08-10T13:39:59.529Z,22.20
2022-08-10T13:41:08.990Z,22.26
2022-08-10T13:42:15.206Z,22.36
2022-08-10T13:43:39.446Z,22.59
2022-08-10T13:44:47.987Z,22.84
2022-08-10T13:45:54.655Z,23.11
2022-08-10T13:47:02.061Z,23.39
2022-08-10T13:48:16.056Z,23.65
2022-08-10T13:49:22.959Z,23.90
2022-08-10T13:50:34.682Z,24.13
2022-08-10T13:51:53.847Z,24.37
2022-08-10T13:53:13.998Z,24.64
2022-08-10T13:54:25.714Z,24.87
2022-08-10T13:55:46.038Z,25.10
2022-08-10T13:57:03.337Z,25.36
2022-08-10T13:58:10.266Z,25.54
2022-08-10T13:59:16.488Z,25.70
2022-08-10T14:00:34.048Z,25.83
2022-08-10T14:01:49.652Z,26.00
2022-08-10T14:03:17.668Z,26.18
2022-08-10T14:04:24.834Z,26.43
2022-08-10T14:05:36.866Z,26.64
2022-08-10T14:06:43.521Z,26.86
2022-08-10T14:08:01.065Z,27.08
2022-08-10T14:09:15.627Z,27.33
2022-08-10T14:11:09.661Z,27.48
2022-08-10T14:11:53.269Z,27.47
2022-08-10T14:13:00.114Z,27.42
2022-08-10T14:14:19.967Z,27.32
2022-08-10T14:15:31.919Z,27.18
2022-08-10T14:16:43.235Z,27.05
2022-08-10T14:17:56.032Z,26.96
2022-08-10T14:19:12.010Z,26.89
2022-08-10T14:20:21.932Z,26.88
2022-08-10T14:21:28.299Z,26.89
2022-08-10T14:22:38.689Z,26.97
2022-08-10T14:23:52.296Z,27.04
2022-08-10T14:25:08.298Z,27.20
2022-08-10T14:26:16.457Z,27.37
2022-08-10T14:27:22.380Z,27.57
2022-08-10T14:28:41.449Z,27.85
2022-08-10T14:29:52.453Z,28.19
2022-08-10T14:31:05.581Z,28.54
2022-08-10T14:32:12.544Z,28.90
2022-08-10T14:33:18.539Z,29.26
2022-08-10T14:36:15.252Z,29.61
2022-08-10T14:36:18.896Z,29.98
2022-08-10T14:37:47.033Z,30.28
2022-08-10T14:38:54.623Z,30.50
2022-08-10T14:40:16.944Z,30.65
2022-08-10T14:42:04.399Z,30.80
2022-08-10T14:43:13.945Z,30.95
2022-08-10T14:44:27.802Z,31.05
2022-08-10T14:45:37.523Z,31.20
2022-08-10T14:46:51.381Z,31.39
2022-08-10T14:48:32.040Z,31.60
2022-08-10T14:49:57.025Z,31.86
2022-08-10T14:51:09.055Z,32.13
2022-08-10T14:52:15.922Z,32.33
2022-08-10T14:53:27.016Z,32.46
2022-08-10T14:54:34.959Z,32.61
2022-08-10T14:55:58.826Z,32.76
2022-08-10T14:57:16.156Z,32.89
2022-08-10T14:58:35.096Z,33.00
2022-08-10T15:00:22.569Z,33.08
2022-08-10T15:01:13.937Z,33.07
2022-08-10T15:02:40.328Z,33.15
2022-08-10T15:04:02.968Z,33.34
2022-08-10T15:05:11.085Z,33.51
2022-08-10T15:06:20.056Z,33.64
2022-08-10T15:07:44.226Z,33.75
2022-08-10T15:08:51.759Z,33.69
2022-08-10T15:10:04.183Z,33.57
2022-08-10T15:12:13.733Z,33.46
2022-08-10T15:12:42.325Z,33.38
2022-08-10T15:14:29.249Z,33.41
2022-08-10T15:15:27.902Z,33.42
2022-08-10T15:16:39.468Z,33.42
2022-08-10T15:17:53.831Z,33.40
2022-08-10T15:20:00.688Z,33.47
2022-08-10T15:20:34.661Z,33.57
2022-08-10T15:21:43.790Z,33.66
2022-08-10T15:23:02.231Z,33.75
2022-08-10T15:24:13.516Z,33.80
2022-08-10T15:25:25.116Z,33.84
2022-08-10T15:26:40.061Z,33.90
2022-08-10T15:28:07.350Z,34.04
2022-08-10T15:29:24.057Z,34.01
2022-08-10T15:30:55.929Z,33.75
2022-08-10T15:32:25.527Z,33.47
2022-08-10T15:34:05.027Z,33.36
2022-08-10T15:35:31.378Z,33.40
2022-08-10T15:37:47.366Z,33.51
2022-08-10T15:38:35.532Z,33.41
2022-08-10T15:40:24.116Z,33.35
2022-08-10T15:41:25.102Z,33.38
2022-08-10T15:42:59.600Z,33.46
2022-08-10T15:44:09.934Z,33.51
2022-08-10T15:45:18.676Z,33.63
2022-08-10T15:46:30.076Z,33.71
2022-08-10T15:47:45.183Z,33.71
2022-08-10T15:49:02.721Z,33.60
2022-08-10T15:50:45.827Z,33.60
2022-08-10T15:52:03.958Z,33.68
2022-08-10T15:53:23.533Z,33.88
2022-08-10T15:55:00.844Z,34.05
2022-08-10T15:56:34.740Z,34.15
2022-08-10T15:57:48.434Z,34.31
2022-08-10T15:59:08.500Z,34.33
2022-08-10T16:00:18.990Z,34.35
2022-08-10T16:02:12.776Z,34.49
2022-08-10T16:03:12.912Z,34.70
2022-08-10T16:04:54.548Z,34.79
2022-08-10T16:06:04.588Z,34.93
2022-08-10T16:07:22.888Z,35.11
2022-08-10T16:08:57.152Z,34.92
2022-08-10T16:10:28.420Z,34.69
2022-08-10T16:11:42.973Z,34.73
2022-08-10T16:13:59.373Z,34.81
2022-08-10T16:14:47.574Z,34.98
2022-08-10T16:15:55.316Z,35.18
2022-08-10T16:17:02.457Z,35.40
2022-08-10T16:18:16.714Z,35.49
2022-08-10T16:19:25.589Z,35.34
2022-08-10T16:20:54.830Z,35.18
2022-08-10T16:22:36.041Z,35.00
2022-08-10T16:23:44.204Z,34.81
2022-08-10T16:24:52.818Z,34.86
2022-08-10T16:26:15.633Z,34.96
2022-08-10T16:27:25.613Z,35.27
2022-08-10T16:28:34.922Z,35.50
2022-08-10T16:29:55.891Z,35.70
2022-08-10T16:31:09.566Z,35.92
2022-08-10T16:32:20.553Z,36.05
2022-08-10T16:33:54.627Z,36.08
2022-08-10T16:34:58.324Z,36.07
2022-08-10T16:36:07.441Z,36.12
2022-08-10T16:37:20.829Z,36.23
2022-08-10T16:38:27.328Z,36.34
2022-08-10T16:39:58.470Z,36.56
2022-08-10T16:41:07.674Z,36.82
2022-08-10T16:42:40.618Z,36.84
2022-08-10T16:43:52.946Z,36.74
2022-08-10T16:45:17.839Z,36.81
2022-08-10T16:46:27.260Z,36.96